Time;durP1;ratioP1;P1;durP2;ratioP2;P2;SDS_P1;SDS_P2;PMS_P1;PMS_P2;Temp;Humidity;BMP_temperature;BMP_pressure;BME280_temperature;BME280_humidity;BME280_pressure;Samples;Min_cycle;Max_cycle;Signal;HPM_P1;HPM_P2
2021/12/12 00:03:21;;;;;;;0.00;0.00;;;;;;;1.00;100.00;102098.75;10445183;28;20052;-70
2021/12/12 00:08:23;;;;;;;0.00;0.00;;;;;;;1.00;100.00;102088.25;10449392;28;20495;-70
2021/12/12 00:13:29;;;;;;;0.10;0.10;;;;;;;1.02;100.00;102081.19;10456089;28;20135;-70
2021/12/12 00:18:29;;;;;;;0.00;0.00;;;;;;;1.04;100.00;102081.09;10455163;28;20017;-70
2021/12/12 00:23:30;;;;;;;0.00;0.00;;;;;;;1.07;100.00;102086.19;10433949;28;20032;-70
2021/12/12 00:28:31;;;;;;;0.10;0.10;;;;;;;1.09;100.00;102082.59;10454416;28;20291;-70
2021/12/12 00:33:31;;;;;;;0.00;0.00;;;;;;;1.13;100.00;102081.56;10438418;28;20112;-70
2021/12/12 00:38:33;;;;;;;0.10;0.10;;;;;;;1.17;100.00;102076.19;10417246;28;20026;-70
2021/12/12 00:43:48;;;;;;;0.00;0.00;;;;;;;1.19;100.00;102072.53;10413522;28;20385;-70
2021/12/12 00:48:50;;;;;;;0.10;0.10;;;;;;;1.21;100.00;102067.22;10403679;28;20033;-70
2021/12/12 00:53:50;;;;;;;0.00;0.00;;;;;;;1.24;100.00;102064.47;10421065;28;20355;-69
2021/12/12 00:58:51;;;;;;;0.00;0.00;;;;;;;1.27;100.00;102069.59;10442132;28;20116;-70
2021/12/12 01:03:55;;;;;;;0.00;0.00;;;;;;;1.30;100.00;102072.06;10453899;28;20119;-70
2021/12/12 01:08:58;;;;;;;0.10;0.10;;;;;;;1.33;100.00;102070.16;10438974;28;20041;-70
2021/12/12 01:13:59;;;;;;;0.00;0.00;;;;;;;1.35;100.00;102065.69;10448371;28;20025;-70
2021/12/12 01:19:06;;;;;;;0.00;0.00;;;;;;;1.40;100.00;102070.75;10452690;28;20399;-70
2021/12/12 01:24:11;;;;;;;0.00;0.00;;;;;;;1.44;100.00;102074.06;10421618;28;20025;-70
2021/12/12 01:29:13;;;;;;;;;;;;;;;1.46;100.00;102075.72;10441837;28;20108;-70
2021/12/12 01:34:22;;;;;;;0.00;0.00;;;;;;;1.47;100.00;102085.28;10420619;28;19909;-70
2021/12/12 01:39:24;;;;;;;0.00;0.00;;;;;;;1.50;100.00;102077.25;10411183;28;20049;-70
2021/12/12 01:44:31;;;;;;;0.00;0.00;;;;;;;1.53;100.00;102092.03;10411534;28;20029;-70
2021/12/12 01:49:36;;;;;;;0.10;0.10;;;;;;;1.55;100.00;102091.03;10410541;28;20084;-70
2021/12/12 01:54:45;;;;;;;0.00;0.00;;;;;;;1.58;100.00;102084.81;10433296;28;20074;-70
2021/12/12 01:59:48;;;;;;;0.00;0.00;;;;;;;1.60;100.00;102077.72;10451319;28;20107;-70
2021/12/12 02:04:53;;;;;;;0.00;0.00;;;;;;;1.61;100.00;102087.28;10446637;28;20056;-70
2021/12/12 02:09:58;;;;;;;0.00;0.00;;;;;;;1.63;100.00;102088.09;10450921;28;20098;-70
2021/12/12 02:14:59;;;;;;;0.00;0.00;;;;;;;1.65;100.00;102101.13;10451239;28;20100;-70
2021/12/12 02:20:13;;;;;;;0.00;0.00;;;;;;;1.68;100.00;102096.56;10463627;23;20041;-68
2021/12/12 02:35:55;;;;;;;0.00;0.00;;;;;;;1.77;100.00;102088.25;10450013;28;20029;-68
2021/12/12 02:41:01;;;;;;;0.00;0.00;;;;;;;1.80;100.00;102074.13;10449156;28;20017;-68
2021/12/12 02:46:03;;;;;;;0.00;0.00;;;;;;;1.83;100.00;102081.03;10448917;28;20039;-68
2021/12/12 02:51:09;;;;;;;0.00;0.00;;;;;;;1.81;100.00;102068.81;10449213;28;20434;-68
2021/12/12 02:56:18;;;;;;;0.10;0.10;;;;;;;1.81;100.00;102070.59;10448937;28;20029;-68
2021/12/12 03:01:33;;;;;;;0.00;0.00;;;;;;;1.77;100.00;102064.63;10448512;28;20038;-67
2021/12/12 03:06:37;;;;;;;0.00;0.00;;;;;;;1.78;100.00;102065.50;10448526;28;20025;-68
2021/12/12 03:11:38;;;;;;;0.00;0.00;;;;;;;1.77;100.00;102067.25;10448470;28;20017;-68
2021/12/12 03:16:39;;;;;;;0.00;0.00;;;;;;;1.80;100.00;102069.75;10448479;28;20036;-68
2021/12/12 03:21:42;;;;;;;0.00;0.00;;;;;;;1.84;100.00;102051.22;10448123;28;20023;-67
2021/12/12 03:26:44;;;;;;;0.00;0.00;;;;;;;1.88;100.00;102052.78;10448811;28;20368;-67
2021/12/12 03:31:50;;;;;;;0.03;0.03;;;;;;;1.89;100.00;102060.59;10448034;28;20032;-67
2021/12/12 03:36:51;;;;;;;0.00;0.00;;;;;;;1.93;100.00;102063.91;10447750;28;20082;-67
2021/12/12 03:41:56;;;;;;;0.00;0.00;;;;;;;1.97;100.00;102065.47;10447341;28;20383;-68
2021/12/12 03:47:00;;;;;;;;;;;;;;;2.02;100.00;102074.00;10455635;28;20585;-67
2021/12/12 03:52:01;;;;;;;0.00;0.00;;;;;;;2.07;100.00;102069.38;10455911;28;20379;-67
2021/12/12 03:57:02;;;;;;;0.00;0.00;;;;;;;2.13;100.00;102084.84;10437585;28;20021;-67
2021/12/12 04:02:05;;;;;;;0.00;0.00;;;;;;;2.18;100.00;102076.72;10455253;28;20050;-68
2021/12/12 04:07:13;;;;;;;0.00;0.00;;;;;;;2.22;100.00;102078.28;10455396;28;20033;-68
2021/12/12 04:12:16;;;;;;;0.00;0.00;;;;;;;2.25;100.00;102073.72;10455453;28;20462;-69
2021/12/12 04:17:20;;;;;;;0.00;0.00;;;;;;;2.32;100.00;102076.06;10455258;28;20043;-68
2021/12/12 04:22:21;;;;;;;0.00;0.00;;;;;;;2.35;100.00;102076.75;10455099;28;20072;-68
2021/12/12 04:27:23;;;;;;;0.00;0.00;;;;;;;2.38;100.00;102073.13;10454948;28;20057;-68
2021/12/12 04:32:28;;;;;;;0.00;0.00;;;;;;;2.39;100.00;102073.06;10454819;28;20067;-69
2021/12/12 04:37:29;;;;;;;0.00;0.00;;;;;;;2.43;100.00;102064.06;10454610;28;20029;-69
2021/12/12 04:42:32;;;;;;;0.00;0.00;;;;;;;2.45;100.00;102070.13;10454323;28;20025;-68
2021/12/12 04:53:18;;;;;;;0.00;0.00;;;;;;;2.51;100.00;102068.13;10454949;28;20128;-69
2021/12/12 04:58:28;;;;;;;0.10;0.10;;;;;;;2.51;100.00;102066.34;10453130;28;20467;-68
2021/12/12 05:03:36;;;;;;;0.00;0.00;;;;;;;2.56;100.00;102061.69;10453621;28;20391;-68
2021/12/12 05:08:48;;;;;;;0.00;0.00;;;;;;;2.58;100.00;102056.34;10453336;28;20017;-68
2021/12/12 05:13:55;;;;;;;0.00;0.00;;;;;;;2.61;100.00;102058.81;10453244;28;20067;-68
2021/12/12 05:19:04;;;;;;;0.00;0.00;;;;;;;2.61;100.00;102051.78;10434936;28;20075;-67
2021/12/12 05:24:09;;;;;;;0.00;0.00;;;;;;;2.65;100.00;102053.34;10452817;28;20425;-68
2021/12/12 05:29:21;;;;;;;0.00;0.00;;;;;;;2.66;100.00;102049.75;10452441;28;20032;-67
2021/12/12 05:34:31;;;;;;;0.03;0.03;;;;;;;2.68;100.00;102061.06;10452723;28;20029;-68
2021/12/12 05:39:33;;;;;;;0.00;0.00;;;;;;;2.68;100.00;102041.81;10452301;28;20020;-68
2021/12/12 05:44:34;;;;;;;0.00;0.00;;;;;;;2.71;100.00;102047.75;10434202;28;20312;-68
2021/12/12 05:49:37;;;;;;;0.00;0.00;;;;;;;2.72;100.00;102049.44;10451594;28;20040;-68
2021/12/12 05:54:38;;;;;;;0.00;0.00;;;;;;;2.72;100.00;102046.81;10451680;28;20452;-68
2021/12/12 05:59:39;;;;;;;0.00;0.00;;;;;;;2.75;100.00;102050.22;10451409;28;20047;-68
2021/12/12 06:04:40;;;;;;;0.00;0.00;;;;;;;2.75;100.00;102043.19;10450860;28;20557;-67
2021/12/12 06:09:41;;;;;;;0.00;0.00;;;;;;;2.75;100.00;102037.91;10450133;28;20050;-67
2021/12/12 06:14:42;;;;;;;0.00;0.00;;;;;;;2.77;100.00;102033.44;10451153;28;20036;-68
2021/12/12 06:19:47;;;;;;;0.00;0.00;;;;;;;2.78;100.00;102031.66;10450071;28;20056;-68
2021/12/12 06:24:48;;;;;;;0.00;0.00;;;;;;;2.76;100.00;102017.72;10450441;28;20094;-68
2021/12/12 06:29:52;;;;;;;0.00;0.00;;;;;;;2.77;100.00;102020.28;10449962;28;20053;-68
2021/12/12 06:34:57;;;;;;;0.00;0.00;;;;;;;2.77;100.00;102014.19;10450690;28;20049;-68
2021/12/12 06:39:58;;;;;;;0.00;0.00;;;;;;;2.77;100.00;102006.28;10449621;28;20424;-68
2021/12/12 06:44:59;;;;;;;0.00;0.00;;;;;;;2.79;100.00;102012.28;10449536;28;20025;-67
2021/12/12 06:50:00;;;;;;;0.00;0.00;;;;;;;2.80;100.00;101995.59;10449517;28;20456;-68
2021/12/12 06:55:03;;;;;;;0.00;0.00;;;;;;;2.81;100.00;101992.88;10449198;28;20108;-68
2021/12/12 07:00:08;;;;;;;0.00;0.00;;;;;;;2.81;100.00;101981.50;10448865;28;20514;-69
2021/12/12 07:05:13;;;;;;;0.00;0.00;;;;;;;2.81;100.00;101979.72;10449001;28;20033;-68
2021/12/12 07:10:18;;;;;;;0.00;0.00;;;;;;;2.83;100.00;101977.00;10449497;28;20116;-68
2021/12/12 07:15:19;;;;;;;0.00;0.00;;;;;;;2.81;100.00;101968.34;10449078;28;20033;-68
2021/12/12 07:20:19;;;;;;;0.00;0.00;;;;;;;2.80;100.00;101964.03;10448630;28;20387;-68
2021/12/12 07:25:20;;;;;;;0.00;0.00;;;;;;;2.81;100.00;101958.66;10430496;28;20468;-69
2021/12/12 07:30:21;;;;;;;0.00;0.00;;;;;;;2.82;100.00;101949.84;10448383;28;20021;-69
2021/12/12 07:35:22;;;;;;;0.00;0.00;;;;;;;2.86;100.00;101947.91;10448303;28;20523;-68
2021/12/12 07:40:22;;;;;;;0.00;0.00;;;;;;;2.89;100.00;101942.47;10448338;28;20322;-68
2021/12/12 07:45:23;;;;;;;0.00;0.00;;;;;;;2.91;100.00;101948.50;10448138;28;20462;-68
2021/12/12 07:50:27;;;;;;;0.00;0.00;;;;;;;2.93;100.00;101941.38;10448164;28;20014;-68
2021/12/12 07:55:27;;;;;;;0.00;0.00;;;;;;;2.91;100.00;101928.31;10448099;28;20029;-68
2021/12/12 08:00:28;;;;;;;0.10;0.10;;;;;;;2.92;100.00;101910.72;10429849;28;20039;-68
2021/12/12 08:05:30;;;;;;;0.00;0.00;;;;;;;2.93;100.00;101913.25;10429989;28;20067;-68
2021/12/12 08:10:32;;;;;;;0.00;0.00;;;;;;;2.96;100.00;101925.41;10429940;28;20029;-68
2021/12/12 08:15:32;;;;;;;0.00;0.00;;;;;;;2.97;100.00;101929.75;10447439;28;20033;-68
2021/12/12 08:20:34;;;;;;;0.00;0.00;;;;;;;2.95;100.00;101932.47;10403525;23;20128;-69
2021/12/12 08:25:35;;;;;;;0.00;0.00;;;;;;;3.02;100.00;101924.22;10406496;28;20029;-71
2021/12/12 08:30:36;;;;;;;0.00;0.00;;;;;;;3.07;100.00;101902.00;10410027;28;20010;-69
2021/12/12 08:35:38;;;;;;;0.00;0.00;;;;;;;3.13;100.00;101911.34;10414027;28;20415;-70
2021/12/12 08:40:45;;;;;;;0.00;0.00;;;;;;;3.21;100.00;101898.59;10408373;28;20025;-69
2021/12/12 08:45:49;;;;;;;0.00;0.00;;;;;;;3.29;100.00;101916.63;10395880;28;20119;-69
2021/12/12 08:51:01;;;;;;;0.00;0.00;;;;;;;3.35;100.00;101906.56;10412261;28;20095;-69
2021/12/12 08:56:02;;;;;;;0.00;0.00;;;;;;;3.40;100.00;101907.19;10371956;28;20025;-69
2021/12/12 09:01:14;;;;;;;0.00;0.00;;;;;;;3.45;100.00;101920.06;10371946;28;20100;-69
2021/12/12 09:06:15;;;;;;;0.00;0.00;;;;;;;3.49;100.00;101904.94;10372010;28;20484;-69
2021/12/12 09:11:42;;;;;;;0.00;0.00;;;;;;;3.51;100.00;101903.06;10371664;28;20025;-70
2021/12/12 09:16:56;;;;;;;0.00;0.00;;;;;;;3.52;100.00;101900.38;10374289;28;20029;-69
2021/12/12 09:22:03;;;;;;;0.00;0.00;;;;;;;3.55;100.00;101899.31;10404841;28;20437;-69
2021/12/12 09:27:08;;;;;;;0.00;0.00;;;;;;;3.60;100.00;101913.94;10408415;28;20033;-70
2021/12/12 09:32:12;;;;;;;0.00;0.00;;;;;;;3.63;100.00;101910.28;10411829;28;20472;-69
2021/12/12 09:37:20;;;;;;;0.00;0.00;;;;;;;3.65;100.00;101905.78;10410970;28;20032;-70
2021/12/12 09:42:53;;;;;;;0.00;0.00;;;;;;;3.67;100.00;101901.28;10374734;28;20022;-69
2021/12/12 09:54:13;;;;;;;0.00;0.00;;;;;;;3.75;100.00;101903.44;10370003;28;20041;-69
2021/12/12 09:59:28;;;;;;;0.00;0.00;;;;;;;3.80;100.00;101899.59;10398214;28;20051;-69
2021/12/12 10:04:46;;;;;;;0.00;0.00;;;;;;;3.83;100.00;101895.94;10410742;28;20033;-69
2021/12/12 10:09:54;;;;;;;0.00;0.00;;;;;;;3.86;100.00;101882.59;10380287;28;20108;-69
2021/12/12 10:14:57;;;;;;;0.00;0.00;;;;;;;3.91;100.00;101874.44;10369015;28;20022;-69
2021/12/12 10:20:03;;;;;;;0.00;0.00;;;;;;;3.97;100.00;101887.25;10369093;28;20381;-69
2021/12/12 10:25:15;;;;;;;0.00;0.00;;;;;;;4.02;100.00;101886.03;10368494;28;20105;-69
2021/12/12 10:30:36;;;;;;;0.00;0.00;;;;;;;4.02;100.00;101877.28;10368685;28;20026;-69
2021/12/12 10:35:45;;;;;;;0.00;0.00;;;;;;;4.04;100.00;101873.63;10387153;28;20037;-69
2021/12/12 10:40:51;;;;;;;0.00;0.00;;;;;;;4.06;100.00;101876.16;10409062;28;20536;-69
2021/12/12 10:46:29;;;;;;;0.00;0.00;;;;;;;4.08;100.00;101884.81;10408509;28;20033;-69
2021/12/12 10:51:37;;;;;;;0.00;0.00;;;;;;;4.09;100.00;101875.97;10398724;28;20072;-69
2021/12/12 10:56:48;;;;;;;0.00;0.00;;;;;;;4.11;100.00;101883.78;10367456;28;20029;-69
2021/12/12 11:01:52;;;;;;;0.00;0.00;;;;;;;4.13;100.00;101871.34;10367680;28;20524;-69
2021/12/12 11:06:58;;;;;;;;;;;;;;;4.14;100.00;101878.34;10368247;28;20353;-69
2021/12/12 11:12:10;;;;;;;0.00;0.00;;;;;;;4.18;100.00;101885.94;10371358;28;20004;-69
2021/12/12 11:17:27;;;;;;;0.00;0.00;;;;;;;4.19;100.00;101885.03;10385999;28;20113;-69
2021/12/12 11:22:40;;;;;;;0.00;0.00;;;;;;;4.20;100.00;101873.53;10367461;28;20503;-69
2021/12/12 11:27:48;;;;;;;0.00;0.00;;;;;;;4.21;100.00;101864.66;10366735;28;20476;-69
2021/12/12 11:32:52;;;;;;;0.00;0.00;;;;;;;4.24;100.00;101866.28;10367593;28;20559;-69
2021/12/12 11:38:08;;;;;;;0.00;0.00;;;;;;;4.25;100.00;101868.84;10365777;28;20412;-69
2021/12/12 11:43:20;;;;;;;0.00;0.00;;;;;;;4.30;100.00;101861.50;10349343;28;20413;-69
2021/12/12 11:48:58;;;;;;;0.00;0.00;;;;;;;4.36;100.00;101857.63;10367022;28;20049;-69
2021/12/12 11:54:11;;;;;;;0.00;0.00;;;;;;;4.39;100.00;101843.41;10369904;28;20402;-69
2021/12/12 11:59:23;;;;;;;0.00;0.00;;;;;;;4.42;100.00;101846.72;10367386;28;20017;-69
2021/12/12 12:04:34;;;;;;;0.00;0.00;;;;;;;4.46;100.00;101847.38;10369473;28;20518;-69
2021/12/12 12:10:04;;;;;;;0.00;0.00;;;;;;;4.51;100.00;101856.69;10378003;28;20444;-69
2021/12/12 12:15:21;;;;;;;0.00;0.00;;;;;;;4.56;100.00;101856.38;10371654;28;20037;-69
2021/12/12 12:20:30;;;;;;;0.00;0.00;;;;;;;4.63;100.00;101854.25;10355676;28;20108;-69
2021/12/12 12:31:33;;;;;;;0.00;0.00;;;;;;;4.75;100.00;101874.59;10375643;28;20373;-70
2021/12/12 12:37:11;;;;;;;0.00;0.00;;;;;;;4.78;100.00;101886.75;10413908;28;20091;-69
2021/12/12 12:42:42;;;;;;;0.00;0.00;;;;;;;4.79;100.00;101881.34;10398435;28;20028;-69
2021/12/12 12:48:10;;;;;;;0.00;0.00;;;;;;;4.86;100.00;101877.41;10392222;28;20067;-69
2021/12/12 12:53:31;;;;;;;0.00;0.00;;;;;;;4.97;100.00;101872.31;10413050;28;20572;-69
2021/12/12 12:58:59;;;;;;;0.00;0.00;;;;;;;5.04;100.00;101883.31;10412521;28;20535;-69
2021/12/12 13:04:02;;;;;;;0.00;0.00;;;;;;;5.09;100.00;101899.72;10412601;28;20030;-69
2021/12/12 13:09:10;;;;;;;0.00;0.00;;;;;;;5.13;100.00;101897.72;10403071;28;20053;-69
2021/12/12 13:14:18;;;;;;;0.00;0.00;;;;;;;5.16;100.00;101900.16;10410295;28;20028;-69
2021/12/12 13:19:26;;;;;;;0.00;0.00;;;;;;;5.18;100.00;101906.22;10393414;28;20027;-69
2021/12/12 13:24:57;;;;;;;0.00;0.00;;;;;;;5.22;100.00;101902.41;10411727;28;20029;-69
2021/12/12 13:30:13;;;;;;;0.00;0.00;;;;;;;5.28;100.00;101911.75;10371311;28;20029;-69
2021/12/12 13:35:30;;;;;;;0.00;0.00;;;;;;;5.34;100.00;101906.91;10370461;28;20073;-69
2021/12/12 13:40:41;;;;;;;0.00;0.00;;;;;;;5.37;100.00;101912.00;10369960;28;20025;-69
2021/12/12 13:46:06;;;;;;;0.00;0.00;;;;;;;5.40;100.00;101909.16;10400285;28;20381;-69
2021/12/12 13:51:30;;;;;;;0.00;0.00;;;;;;;5.45;100.00;101903.56;10381428;28;20028;-69
2021/12/12 13:56:34;;;;;;;0.00;0.00;;;;;;;5.47;100.00;101904.34;10370392;28;20018;-69
2021/12/12 14:01:45;;;;;;;0.00;0.00;;;;;;;5.50;100.00;101905.91;10369940;28;20018;-68
2021/12/12 14:06:46;;;;;;;0.00;0.00;;;;;;;5.56;100.00;101919.59;10369167;28;20176;-68
2021/12/12 14:11:51;;;;;;;0.00;0.00;;;;;;;5.60;100.00;101914.94;10351724;28;20443;-68
2021/12/12 14:17:02;;;;;;;0.00;0.00;;;;;;;5.64;100.00;101917.31;10408359;28;20067;-68
2021/12/12 14:22:04;;;;;;;0.00;0.00;;;;;;;5.67;100.00;101917.09;10437269;23;20475;-68
2021/12/12 14:27:09;;;;;;;0.08;0.08;;;;;;;5.72;100.00;101923.88;10452092;28;20085;-68
2021/12/12 14:32:15;;;;;;;0.00;0.00;;;;;;;5.75;100.00;101929.78;10415529;28;20072;-68
2021/12/12 14:37:19;;;;;;;0.00;0.00;;;;;;;5.76;100.00;101918.28;10393744;28;20092;-67
2021/12/12 14:42:26;;;;;;;0.10;0.10;;;;;;;5.79;100.00;101931.31;10416189;28;20022;-67
2021/12/12 14:47:32;;;;;;;0.00;0.00;;;;;;;5.80;100.00;101922.41;10400757;28;20036;-68
2021/12/12 14:52:36;;;;;;;0.00;0.00;;;;;;;5.81;100.00;101932.03;10364422;28;20018;-69
2021/12/12 14:57:37;;;;;;;0.00;0.00;;;;;;;5.84;100.00;101945.03;10372842;28;20476;-70
2021/12/12 15:02:57;;;;;;;0.05;0.05;;;;;;;5.88;100.00;101948.34;10407905;28;20030;-69
2021/12/12 15:08:09;;;;;;;0.00;0.00;;;;;;;5.95;100.00;101962.88;10399495;28;20028;-69
2021/12/12 15:13:14;;;;;;;0.00;0.00;;;;;;;6.00;100.00;101966.09;10375711;28;20380;-69
2021/12/12 15:18:15;;;;;;;;;;;;;;;6.03;100.00;101952.66;10366807;28;20026;-69
2021/12/12 15:23:21;;;;;;;0.00;0.00;;;;;;;6.05;100.00;101963.13;10367368;28;19913;-69
2021/12/12 15:28:28;;;;;;;0.00;0.00;;;;;;;6.08;100.00;101953.19;10366601;28;20029;-69
2021/12/12 15:33:32;;;;;;;0.00;0.00;;;;;;;6.09;100.00;101946.13;10406452;28;20025;-69
2021/12/12 15:38:39;;;;;;;0.03;0.03;;;;;;;6.12;100.00;101954.69;10397383;28;20030;-69
2021/12/12 15:43:58;;;;;;;0.00;0.00;;;;;;;6.18;100.00;101971.94;10395718;28;20388;-69
2021/12/12 15:49:06;;;;;;;0.00;0.00;;;;;;;6.22;100.00;101970.78;10374888;28;20072;-71
2021/12/12 15:54:18;;;;;;;0.00;0.00;;;;;;;6.25;100.00;101975.03;10374619;28;20021;-71
2021/12/12 15:59:29;;;;;;;0.00;0.00;;;;;;;6.27;100.00;101979.25;10373685;28;20014;-71
2021/12/12 16:04:33;;;;;;;0.00;0.00;;;;;;;6.32;100.00;101987.75;10413059;28;20060;-70
2021/12/12 16:09:38;;;;;;;0.00;0.00;;;;;;;6.35;100.00;101995.47;10405608;28;20029;-71
2021/12/12 16:14:39;;;;;;;0.10;0.10;;;;;;;6.39;100.00;102008.50;10388118;28;20440;-69
2021/12/12 16:19:42;;;;;;;0.00;0.00;;;;;;;6.40;100.00;102004.88;10355417;28;20018;-70
2021/12/12 16:24:46;;;;;;;0.00;0.00;;;;;;;6.43;100.00;102018.78;10355686;28;20030;-70
2021/12/12 16:30:09;;;;;;;0.10;0.10;;;;;;;6.46;100.00;102030.97;10373304;28;20362;-70
2021/12/12 16:35:14;;;;;;;0.00;0.00;;;;;;;6.48;100.00;102031.69;10372778;28;20104;-69
2021/12/12 16:40:32;;;;;;;0.10;0.10;;;;;;;6.53;100.00;102050.78;10368568;28;20025;-70
2021/12/12 16:45:41;;;;;;;0.00;0.00;;;;;;;6.54;100.00;102055.09;10413035;28;20025;-70
2021/12/12 16:50:51;;;;;;;0.03;0.03;;;;;;;6.55;100.00;102072.72;10407141;28;20025;-70
2021/12/12 16:55:52;;;;;;;0.00;0.00;;;;;;;6.55;100.00;102078.84;10412987;28;20017;-69
2021/12/12 17:01:03;;;;;;;0.05;0.05;;;;;;;6.56;100.00;102084.97;10390338;28;20029;-70
2021/12/12 17:06:11;;;;;;;0.00;0.00;;;;;;;6.56;100.00;102085.81;10371460;28;20037;-68
2021/12/12 17:11:16;;;;;;;0.00;0.00;;;;;;;6.58;100.00;102093.69;10399291;28;20028;-70
2021/12/12 17:16:27;;;;;;;0.00;0.00;;;;;;;6.59;100.00;102098.00;10411992;28;20021;-69
2021/12/12 17:21:31;;;;;;;0.00;0.00;;;;;;;6.59;100.00;102100.66;10379205;28;20112;-70
2021/12/12 17:26:35;;;;;;;0.00;0.00;;;;;;;6.64;100.00;102095.06;10373883;28;20081;-69
2021/12/12 17:31:41;;;;;;;0.00;0.00;;;;;;;6.66;100.00;102090.50;10353276;28;20018;-69
2021/12/12 17:36:53;;;;;;;0.10;0.10;;;;;;;6.67;100.00;102106.31;10350411;28;20088;-69
2021/12/12 17:42:02;;;;;;;0.00;0.00;;;;;;;6.70;100.00;102106.09;10400934;28;20036;-69
2021/12/12 17:47:03;;;;;;;0.00;0.00;;;;;;;6.72;100.00;102112.13;10392790;28;20602;-69
2021/12/12 17:52:27;;;;;;;0.00;0.00;;;;;;;6.71;100.00;102110.41;10411168;28;20025;-70
2021/12/12 17:57:41;;;;;;;0.00;0.00;;;;;;;6.68;100.00;102112.44;10409999;28;20021;-70
2021/12/12 18:02:42;;;;;;;0.00;0.00;;;;;;;6.65;100.00;102118.78;10395033;28;20029;-70
2021/12/12 18:08:00;;;;;;;0.00;0.00;;;;;;;6.65;100.00;102131.19;10375236;28;20543;-71
2021/12/12 18:13:06;;;;;;;0.00;0.00;;;;;;;6.65;100.00;102123.22;10385547;28;20025;-70
2021/12/12 18:18:34;;;;;;;0.03;0.03;;;;;;;6.63;100.00;102123.31;10409150;28;20053;-71
2021/12/12 18:23:37;;;;;;;0.00;0.00;;;;;;;6.63;100.00;102125.13;10385776;28;20037;-70
2021/12/12 18:28:57;;;;;;;0.10;0.10;;;;;;;6.61;100.00;102130.53;10368633;28;20018;-71
2021/12/12 18:34:01;;;;;;;0.00;0.00;;;;;;;6.58;100.00;102126.28;10369511;28;20500;-71
2021/12/12 18:39:12;;;;;;;0.00;0.00;;;;;;;6.58;100.00;102133.38;10383058;28;20034;-70
2021/12/12 18:44:21;;;;;;;0.00;0.00;;;;;;;6.55;100.00;102141.53;10405025;28;20284;-70
2021/12/12 18:49:22;;;;;;;0.00;0.00;;;;;;;6.57;100.00;102144.91;10409133;28;20026;-69
2021/12/12 18:54:26;;;;;;;0.05;0.05;;;;;;;6.56;100.00;102148.50;10407906;28;20267;-70
2021/12/12 18:59:29;;;;;;;0.00;0.00;;;;;;;6.55;100.00;102155.63;10389195;28;20383;-69
2021/12/12 19:04:57;;;;;;;0.00;0.00;;;;;;;6.55;100.00;102163.56;10408768;28;20075;-70
2021/12/12 19:10:01;;;;;;;0.10;0.10;;;;;;;6.58;100.00;102167.81;10391476;28;20056;-70
2021/12/12 19:15:25;;;;;;;0.10;0.10;;;;;;;6.67;100.00;102166.34;10400245;28;20358;-70
2021/12/12 19:20:27;;;;;;;0.00;0.00;;;;;;;6.74;100.00;102172.94;10408173;28;20061;-70
2021/12/12 19:25:29;;;;;;;0.10;0.10;;;;;;;6.79;100.00;102176.97;10408135;28;20021;-71
2021/12/12 19:30:34;;;;;;;0.08;0.08;;;;;;;6.84;100.00;102175.84;10390178;28;20096;-70
2021/12/12 19:35:35;;;;;;;0.00;0.00;;;;;;;6.86;100.00;102182.69;10407826;28;20092;-70
2021/12/12 19:41:19;;;;;;;0.00;0.00;;;;;;;6.87;100.00;102186.22;10389514;28;20113;-70
2021/12/12 19:46:21;;;;;;;0.00;0.00;;;;;;;6.88;100.00;102175.50;10399754;28;20037;-71
2021/12/12 19:51:28;;;;;;;0.10;0.10;;;;;;;6.91;100.00;102195.66;10389904;28;20061;-69
2021/12/12 19:56:31;;;;;;;0.00;0.00;;;;;;;6.90;100.00;102201.91;10394486;28;20380;-71
2021/12/12 20:01:34;;;;;;;0.00;0.00;;;;;;;6.91;100.00;102198.31;10368672;28;20050;-70
2021/12/12 20:06:39;;;;;;;0.00;0.00;;;;;;;6.91;100.00;102201.78;10349305;28;20396;-69
2021/12/12 20:11:46;;;;;;;0.00;0.00;;;;;;;6.93;100.00;102204.34;10372238;28;20024;-71
2021/12/12 20:16:52;;;;;;;0.00;0.00;;;;;;;6.94;100.00;102209.53;10378856;28;20359;-71
2021/12/12 20:22:05;;;;;;;0.00;0.00;;;;;;;6.97;100.00;102211.13;10395183;23;20038;-68
2021/12/12 20:27:17;;;;;;;0.00;0.00;;;;;;;7.06;100.00;102221.13;10381100;28;20037;-70
2021/12/12 20:32:41;;;;;;;0.10;0.10;;;;;;;7.13;100.00;102222.44;10411635;28;20076;-70
2021/12/12 20:38:05;;;;;;;0.10;0.10;;;;;;;7.22;100.00;102221.81;10409856;28;20404;-68
2021/12/12 20:43:12;;;;;;;0.10;0.10;;;;;;;7.28;100.00;102230.31;10413753;28;20033;-68
2021/12/12 20:48:25;;;;;;;0.00;0.00;;;;;;;7.31;100.00;102232.75;10415850;28;20040;-68
2021/12/12 20:53:31;;;;;;;0.10;0.10;;;;;;;7.33;100.00;102238.75;10414457;28;20037;-68
2021/12/12 20:58:37;;;;;;;0.00;0.00;;;;;;;7.36;100.00;102234.13;10414794;28;20148;-69
2021/12/12 21:03:44;;;;;;;0.08;0.08;;;;;;;7.37;100.00;102234.97;10415165;28;20039;-68
2021/12/12 21:08:57;;;;;;;0.00;0.00;;;;;;;7.37;100.00;102235.81;10413777;28;20030;-68
2021/12/12 21:13:58;;;;;;;0.00;0.00;;;;;;;7.37;100.00;102240.28;10410977;28;20030;-68
2021/12/12 21:19:11;;;;;;;0.10;0.10;;;;;;;7.36;100.00;102230.59;10410412;28;20036;-69
2021/12/12 21:24:18;;;;;;;0.10;0.10;;;;;;;7.35;100.00;102232.41;10395842;28;20033;-69
2021/12/12 21:29:20;;;;;;;0.10;0.10;;;;;;;7.35;100.00;102231.56;10413414;28;20093;-68
2021/12/12 21:34:25;;;;;;;0.10;0.10;;;;;;;7.35;100.00;102235.06;10395386;28;20503;-69
2021/12/12 21:39:46;;;;;;;0.00;0.00;;;;;;;7.35;100.00;102239.53;10412108;28;20021;-68
2021/12/12 21:44:56;;;;;;;0.00;0.00;;;;;;;7.37;100.00;102243.78;10403973;28;20450;-69
2021/12/12 21:50:35;;;;;;;0.10;0.10;;;;;;;7.38;100.00;102242.81;10409914;28;20360;-69
2021/12/12 21:55:40;;;;;;;0.00;0.00;;;;;;;7.43;100.00;102247.81;10407381;28;20083;-69
2021/12/12 22:00:48;;;;;;;0.10;0.10;;;;;;;7.44;100.00;102241.53;10412110;28;20074;-69
2021/12/12 22:05:50;;;;;;;0.10;0.10;;;;;;;7.43;100.00;102250.47;10411947;28;20033;-67
2021/12/12 22:10:53;;;;;;;0.10;0.10;;;;;;;7.42;100.00;102248.78;10410144;28;20026;-68
2021/12/12 22:16:00;;;;;;;0.10;0.10;;;;;;;7.42;100.00;102249.63;10410074;28;20114;-67
2021/12/12 22:21:06;;;;;;;0.10;0.10;;;;;;;7.41;100.00;102252.34;10407824;28;20284;-68
2021/12/12 22:26:06;;;;;;;0.10;0.10;;;;;;;7.40;100.00;102255.97;10408268;28;20029;-68
2021/12/12 22:31:11;;;;;;;0.10;0.10;;;;;;;7.42;100.00;102264.69;10408588;28;20558;-67
2021/12/12 22:36:16;;;;;;;0.00;0.00;;;;;;;7.42;100.00;102269.97;10409000;28;20029;-67
2021/12/12 22:41:21;;;;;;;0.10;0.10;;;;;;;7.42;100.00;102277.94;10405995;28;20017;-68
2021/12/12 22:46:23;;;;;;;0.05;0.05;;;;;;;7.42;100.00;102272.63;10390843;28;20025;-68
2021/12/12 22:51:41;;;;;;;0.00;0.00;;;;;;;7.41;100.00;102271.75;10408789;28;20120;-67
2021/12/12 22:56:49;;;;;;;0.00;0.00;;;;;;;7.41;100.00;102277.06;10402522;28;20068;-70
2021/12/12 23:01:54;;;;;;;0.00;0.00;;;;;;;7.40;100.00;102279.84;10408268;28;20048;-69
2021/12/12 23:07:04;;;;;;;0.00;0.00;;;;;;;7.41;100.00;102271.75;10406907;28;20048;-69
2021/12/12 23:12:33;;;;;;;0.10;0.10;;;;;;;7.45;100.00;102283.03;10408282;28;20044;-69
2021/12/12 23:17:38;;;;;;;0.00;0.00;;;;;;;7.43;100.00;102274.31;10407399;28;20483;-69
2021/12/12 23:22:40;;;;;;;0.10;0.10;;;;;;;7.40;100.00;102278.03;10407941;28;20076;-69
2021/12/12 23:32:52;;;;;;;0.10;0.10;;;;;;;7.42;100.00;102277.94;10407468;28;20176;-68
2021/12/12 23:37:58;;;;;;;0.10;0.10;;;;;;;7.43;100.00;102282.28;10387432;28;20336;-68
2021/12/12 23:43:16;;;;;;;0.00;0.00;;;;;;;7.46;100.00;102282.06;10405538;28;20036;-68
2021/12/12 23:48:27;;;;;;;0.10;0.10;;;;;;;7.52;100.00;102280.81;10405463;28;20373;-68
2021/12/12 23:53:44;;;;;;;0.00;0.00;;;;;;;7.54;100.00;102277.09;10406397;28;20017;-67
2021/12/12 23:58:52;;;;;;;0.00;0.00;;;;;;;7.53;100.00;102280.69;10404632;28;20499;-68
